createdAt,value
2017-05-10T00:00:08.057Z,36.16
2017-05-10T00:01:08.334Z,36.36
2017-05-10T00:02:08.057Z,36.46
2017-05-10T00:03:08.080Z,37.03
2017-05-10T00:04:08.550Z,36.84
2017-05-10T00:05:08.434Z,35.97
2017-05-10T00:06:08.158Z,36.93
2017-05-10T00:07:08.485Z,36.93
2017-05-10T00:08:08.207Z,36.84
2017-05-10T00:09:08.233Z,37.22
2017-05-10T00:10:14.666Z,36.65
2017-05-10T00:11:09.020Z,37.13
2017-05-10T00:12:08.309Z,36.82
2017-05-10T00:13:08.339Z,36.91
2017-05-10T00:14:08.668Z,37.11
2017-05-10T00:15:08.435Z,37.2
2017-05-10T00:16:08.752Z,37.11
2017-05-10T00:17:08.455Z,37.3
2017-05-10T00:18:09.131Z,37.01
2017-05-10T00:19:08.790Z,36.91
2017-05-10T00:20:08.510Z,37.2
2017-05-10T00:21:08.538Z,37.11
2017-05-10T00:22:08.561Z,37.4
2017-05-10T00:23:08.586Z,37.3
2017-05-10T00:24:08.914Z,37.49
2017-05-10T00:25:08.640Z,37.59
2017-05-10T00:26:08.673Z,37.2
2017-05-10T00:27:08.991Z,37.3
2017-05-10T00:28:08.711Z,37.68
2017-05-10T00:29:09.045Z,37.4
2017-05-10T00:30:08.762Z,37.49
2017-05-10T00:31:09.086Z,38.35
2017-05-10T00:32:08.813Z,37.78
2017-05-10T00:33:09.129Z,37.97
2017-05-10T00:34:08.863Z,37.78
2017-05-10T00:35:08.889Z,37.59
2017-05-10T00:36:09.219Z,37.4
2017-05-10T00:37:08.944Z,37.59
2017-05-10T00:38:09.283Z,37.59
2017-05-10T00:39:09.294Z,37.3
2017-05-10T00:40:09.288Z,38.26
2017-05-10T00:41:09.350Z,37.87
2017-05-10T00:42:09.065Z,37.49
2017-05-10T00:43:09.389Z,38.07
2017-05-10T00:44:09.113Z,38.07
2017-05-10T00:45:09.140Z,38.35
2017-05-10T00:46:09.159Z,37.87
2017-05-10T00:47:09.489Z,37.68
2017-05-10T00:48:09.215Z,37.2
2017-05-10T00:49:09.544Z,37.49
2017-05-10T00:50:09.614Z,37.59
2017-05-10T00:51:09.289Z,37.78
2017-05-10T00:52:09.658Z,37.97
2017-05-10T00:53:09.638Z,38.54
2017-05-10T00:54:09.756Z,37.76
2017-05-10T00:55:09.387Z,37.97
2017-05-10T00:56:09.408Z,37.85
2017-05-10T00:57:09.434Z,37.97
2017-05-10T00:58:09.763Z,37.78
2017-05-10T00:59:09.661Z,37.87
2017-05-10T01:00:09.511Z,37.97
2017-05-10T01:01:09.533Z,38.05
2017-05-10T01:02:09.561Z,37.95
2017-05-10T01:03:09.885Z,37.95
2017-05-10T01:04:09.607Z,38.07
2017-05-10T01:05:09.634Z,37.78
2017-05-10T01:06:09.696Z,38.05
2017-05-10T01:07:09.741Z,38.43
2017-05-10T01:08:09.948Z,38.34
2017-05-10T01:09:09.733Z,38.14
2017-05-10T01:10:09.774Z,38.14
2017-05-10T01:11:09.785Z,38.34
2017-05-10T01:12:09.812Z,38.34
2017-05-10T01:13:09.869Z,38.34
2017-05-10T01:14:09.857Z,38.43
2017-05-10T01:15:10.247Z,38.05
2017-05-10T01:16:09.905Z,38.53
2017-05-10T01:17:09.927Z,38.53
2017-05-10T01:18:10.257Z,38.53
2017-05-10T01:19:09.980Z,38.34
2017-05-10T01:20:10.302Z,38.24
2017-05-10T01:21:10.028Z,38.24
2017-05-10T01:22:10.070Z,38.05
2017-05-10T01:23:10.076Z,38.43
2017-05-10T01:24:10.454Z,38.24
2017-05-10T01:25:10.132Z,38.43
2017-05-10T01:26:10.147Z,38.14
2017-05-10T01:27:10.176Z,38.62
2017-05-10T01:28:10.499Z,38.53
2017-05-10T01:29:10.592Z,39.01
2017-05-10T01:30:10.251Z,38.51
2017-05-10T01:31:10.572Z,38.72
2017-05-10T01:32:10.600Z,38.62
2017-05-10T01:33:10.327Z,39.01
2017-05-10T01:34:10.346Z,38.53
2017-05-10T01:35:10.691Z,38.91
2017-05-10T01:36:10.623Z,38.6
2017-05-10T01:37:10.425Z,38.79
2017-05-10T01:38:10.446Z,38.7
2017-05-10T01:39:10.771Z,38.79
2017-05-10T01:40:10.494Z,38.89
2017-05-10T01:41:10.848Z,38.79
2017-05-10T01:42:10.537Z,38.79
2017-05-10T01:43:11.016Z,38.7
2017-05-10T01:44:10.592Z,38.79
2017-05-10T01:45:10.612Z,39.08
2017-05-10T01:46:10.643Z,38.79
2017-05-10T01:47:10.963Z,38.89
2017-05-10T01:48:10.994Z,38.89
2017-05-10T01:49:10.834Z,38.6
2017-05-10T01:50:11.318Z,38.79
2017-05-10T01:51:10.757Z,39.01
2017-05-10T01:52:10.786Z,38.89
2017-05-10T01:53:11.109Z,38.6
2017-05-10T01:54:11.135Z,38.6
2017-05-10T01:55:10.934Z,38.51
2017-05-10T01:56:10.881Z,38.79
2017-05-10T01:57:11.081Z,39.08
2017-05-10T01:58:11.281Z,38.7
2017-05-10T01:59:11.077Z,38.89
2017-05-10T02:00:11.279Z,38.51
2017-05-10T02:01:11.008Z,38.98
2017-05-10T02:02:11.079Z,38.6
2017-05-10T02:03:11.353Z,38.6
2017-05-10T02:04:11.348Z,38.89
2017-05-10T02:05:11.104Z,38.89
2017-05-10T02:06:11.578Z,38.89
2017-05-10T02:07:11.449Z,38.51
2017-05-10T02:08:11.498Z,38.51
2017-05-10T02:09:11.336Z,38.51
2017-05-10T02:10:11.237Z,38.79
2017-05-10T02:11:11.717Z,38.41
2017-05-10T02:12:11.270Z,38.79
2017-05-10T02:13:11.295Z,38.79
2017-05-10T02:14:11.324Z,38.79
2017-05-10T02:15:11.700Z,38.79
2017-05-10T02:16:11.747Z,38.7
2017-05-10T02:17:11.392Z,38.89
2017-05-10T02:18:11.862Z,38.89
2017-05-10T02:19:11.442Z,39.28
2017-05-10T02:20:11.885Z,38.98
2017-05-10T02:21:11.787Z,39.18
2017-05-10T02:22:11.519Z,39.08
2017-05-10T02:23:11.947Z,39.28
2017-05-10T02:24:11.558Z,38.6
2017-05-10T02:25:11.735Z,38.98
2017-05-10T02:26:11.609Z,39.37
2017-05-10T02:27:11.938Z,39.28
2017-05-10T02:28:11.708Z,38.89
2017-05-10T02:29:11.704Z,38.79
2017-05-10T02:30:11.839Z,39.28
2017-05-10T02:31:11.736Z,39.28
2017-05-10T02:32:11.919Z,39.18
2017-05-10T02:33:11.780Z,39.18
2017-05-10T02:34:11.804Z,39.18
2017-05-10T02:35:11.826Z,39.08
2017-05-10T02:36:11.874Z,38.98
2017-05-10T02:37:12.050Z,39.08
2017-05-10T02:38:12.257Z,38.89
2017-05-10T02:39:12.049Z,38.79
2017-05-10T02:40:12.248Z,38.89
2017-05-10T02:41:12.045Z,39.37
2017-05-10T02:42:11.997Z,38.79
2017-05-10T02:43:12.019Z,39.47
2017-05-10T02:44:12.353Z,38.98
2017-05-10T02:45:12.068Z,39.85
2017-05-10T02:46:12.284Z,39.47
2017-05-10T02:47:12.113Z,39.56
2017-05-10T02:48:12.144Z,39.92
2017-05-10T02:49:12.464Z,39.65
2017-05-10T02:50:12.200Z,39.65
2017-05-10T02:51:12.301Z,39.65
2017-05-10T02:52:12.531Z,39.37
2017-05-10T02:53:12.536Z,39.47
2017-05-10T02:54:12.282Z,39.45
2017-05-10T02:55:12.406Z,39.06
2017-05-10T02:56:12.330Z,39.37
2017-05-10T02:57:12.355Z,39.54
2017-05-10T02:58:12.484Z,39.94
2017-05-10T02:59:12.403Z,39.37
2017-05-10T03:00:12.731Z,38.98
2017-05-10T03:01:12.756Z,39.16
2017-05-10T03:02:12.852Z,39.35
2017-05-10T03:03:12.805Z,39.94
2017-05-10T03:04:12.524Z,39.45
2017-05-10T03:05:12.546Z,39.25
2017-05-10T03:06:12.668Z,39.25
2017-05-10T03:07:12.648Z,39.64
2017-05-10T03:08:13.031Z,39.64
2017-05-10T03:09:12.641Z,39.56
2017-05-10T03:10:12.665Z,39.65
2017-05-10T03:11:12.687Z,39.64
2017-05-10T03:12:12.714Z,39.83
2017-05-10T03:13:12.951Z,39.92
2017-05-10T03:14:12.768Z,39.54
2017-05-10T03:15:13.019Z,39.25
2017-05-10T03:16:12.806Z,39.54
2017-05-10T03:17:13.127Z,39.92
2017-05-10T03:18:12.951Z,39.45
2017-05-10T03:19:13.187Z,39.54
2017-05-10T03:20:12.899Z,39.45
2017-05-10T03:21:13.100Z,39.25
2017-05-10T03:22:13.551Z,39.35
2017-05-10T03:23:12.982Z,39.54
2017-05-10T03:24:12.999Z,39.25
2017-05-10T03:25:13.021Z,39.83
2017-05-10T03:26:13.043Z,39.73
2017-05-10T03:27:13.202Z,39.35
2017-05-10T03:28:13.393Z,39.64
2017-05-10T03:29:13.284Z,39.45
2017-05-10T03:30:13.144Z,39.45
2017-05-10T03:31:13.163Z,39.92
2017-05-10T03:32:13.536Z,39.45
2017-05-10T03:33:13.512Z,40.02
2017-05-10T03:34:13.237Z,39.45
2017-05-10T03:35:13.428Z,39.92
2017-05-10T03:36:13.285Z,40.02
2017-05-10T03:37:13.912Z,39.25
2017-05-10T03:38:13.331Z,39.83
2017-05-10T03:39:13.366Z,39.92
2017-05-10T03:40:13.378Z,39.35
2017-05-10T03:41:13.408Z,39.64
2017-05-10T03:42:13.575Z,39.83
2017-05-10T03:43:13.453Z,39.83
2017-05-10T03:44:13.779Z,39.35
2017-05-10T03:45:13.498Z,39.25
2017-05-10T03:46:13.614Z,39.83
2017-05-10T03:47:13.847Z,39.54
2017-05-10T03:48:13.867Z,39.92
2017-05-10T03:49:14.202Z,40.02
2017-05-10T03:50:13.615Z,39.83
2017-05-10T03:51:13.866Z,39.35
2017-05-10T03:52:13.715Z,39.64
2017-05-10T03:53:13.686Z,39.92
2017-05-10T03:54:13.716Z,39.45
2017-05-10T03:55:13.735Z,39.83
2017-05-10T03:56:13.958Z,39.35
2017-05-10T03:57:13.781Z,39.73
2017-05-10T03:58:14.034Z,39.92
2017-05-10T03:59:13.828Z,39.92
2017-05-10T04:00:14.060Z,39.45
2017-05-10T04:01:13.877Z,39.45
2017-05-10T04:02:14.237Z,39.73
2017-05-10T04:03:14.090Z,39.35
2017-05-10T04:04:13.947Z,40.02
2017-05-10T04:05:14.176Z,40.02
2017-05-10T04:06:14.039Z,39.81
2017-05-10T04:07:14.843Z,40.19
2017-05-10T04:08:14.044Z,39.92
2017-05-10T04:09:14.078Z,40.02
2017-05-10T04:10:14.320Z,39.83
2017-05-10T04:11:14.115Z,39.92
2017-05-10T04:12:14.716Z,40.29
2017-05-10T04:13:14.161Z,40.09
2017-05-10T04:14:14.386Z,39.92
2017-05-10T04:15:14.208Z,39.64
2017-05-10T04:16:14.235Z,39.35
2017-05-10T04:17:14.588Z,39.9
2017-05-10T04:18:14.583Z,39.73
2017-05-10T04:19:14.308Z,39.83
2017-05-10T04:20:14.515Z,40.12
2017-05-10T04:21:14.353Z,40.12
2017-05-10T04:22:14.374Z,39.83
2017-05-10T04:23:14.400Z,40
2017-05-10T04:24:14.430Z,40.38
2017-05-10T04:25:14.444Z,39.92
2017-05-10T04:26:14.468Z,40.09
2017-05-10T04:27:14.641Z,40.31
2017-05-10T04:28:14.565Z,40.09
2017-05-10T04:29:14.539Z,40.29
2017-05-10T04:30:14.595Z,39.92
2017-05-10T04:31:14.591Z,40.12
2017-05-10T04:32:14.833Z,40.02
2017-05-10T04:33:14.636Z,39.83
2017-05-10T04:34:15.029Z,40.02
2017-05-10T04:35:14.982Z,40.31
2017-05-10T04:36:15.004Z,40.12
2017-05-10T04:37:14.729Z,39.83
2017-05-10T04:38:15.061Z,39.92
2017-05-10T04:39:14.776Z,39.81
2017-05-10T04:40:14.802Z,40.02
2017-05-10T04:41:15.331Z,39.83
2017-05-10T04:42:14.899Z,40.31
2017-05-10T04:43:14.876Z,40.21
2017-05-10T04:44:14.894Z,40.02
2017-05-10T04:45:14.918Z,39.83
2017-05-10T04:46:14.943Z,40.02
2017-05-10T04:47:14.967Z,40.12
2017-05-10T04:48:15.003Z,39.54
2017-05-10T04:49:15.147Z,40.02
2017-05-10T04:50:15.044Z,39.83
2017-05-10T04:51:15.062Z,39.54
2017-05-10T04:52:15.090Z,40.02
2017-05-10T04:53:15.116Z,39.92
2017-05-10T04:54:15.384Z,39.54
2017-05-10T04:55:15.160Z,39.92
2017-05-10T04:56:15.407Z,39.45
2017-05-10T04:57:15.204Z,39.92
2017-05-10T04:58:15.231Z,39.92
2017-05-10T04:59:15.310Z,39.83
2017-05-10T05:00:15.579Z,39.45
2017-05-10T05:01:15.303Z,39.92
2017-05-10T05:02:15.324Z,39.54
2017-05-10T05:03:15.471Z,39.25
2017-05-10T05:04:15.375Z,39.54
2017-05-10T05:05:15.395Z,39.54
2017-05-10T05:06:15.425Z,39.73
2017-05-10T05:07:15.447Z,39.83
2017-05-10T05:08:15.520Z,40.02
2017-05-10T05:09:15.497Z,39.73
2017-05-10T05:10:15.795Z,39.25
2017-05-10T05:11:15.541Z,39.45
2017-05-10T05:12:15.563Z,39.64
2017-05-10T05:13:15.588Z,39.25
2017-05-10T05:14:15.616Z,39.54
2017-05-10T05:15:15.937Z,39.64
2017-05-10T05:16:15.661Z,39.64
2017-05-10T05:17:15.803Z,39.73
2017-05-10T05:18:16.060Z,39.64
2017-05-10T05:19:15.738Z,39.25
2017-05-10T05:20:15.761Z,39.25
2017-05-10T05:21:15.783Z,39.08
2017-05-10T05:22:15.813Z,39.16
2017-05-10T05:23:15.831Z,38.89
2017-05-10T05:24:15.854Z,39.16
2017-05-10T05:25:15.969Z,39.08
2017-05-10T05:26:16.202Z,38.79
2017-05-10T05:27:15.946Z,38.89
2017-05-10T05:28:15.949Z,38.51
2017-05-10T05:29:16.278Z,38.7
2017-05-10T05:30:15.996Z,38.41
2017-05-10T05:31:16.019Z,38.6
2017-05-10T05:32:16.045Z,38.79
2017-05-10T05:33:16.071Z,38.79
2017-05-10T05:34:16.157Z,38.32
2017-05-10T05:35:16.116Z,38.41
2017-05-10T05:36:16.143Z,38.41
2017-05-10T05:37:16.170Z,38.22
2017-05-10T05:38:16.189Z,37.93
2017-05-10T05:39:16.323Z,38.12
2017-05-10T05:40:16.538Z,38.03
2017-05-10T05:41:16.262Z,38.03
2017-05-10T05:42:16.284Z,37.93
2017-05-10T05:43:16.318Z,37.93
2017-05-10T05:44:16.640Z,37.74
2017-05-10T05:45:16.370Z,38.03
2017-05-10T05:46:16.386Z,38.05
2017-05-10T05:47:16.411Z,38.03
2017-05-10T05:48:16.740Z,38.12
2017-05-10T05:49:16.457Z,37.93
2017-05-10T05:50:16.628Z,37.47
2017-05-10T05:51:16.506Z,37.45
2017-05-10T05:52:16.528Z,37.55
2017-05-10T05:53:16.863Z,37.76
2017-05-10T05:54:16.842Z,37.38
2017-05-10T05:55:16.905Z,37.28
2017-05-10T05:56:16.772Z,37.28
2017-05-10T05:57:16.656Z,37.09
2017-05-10T05:58:16.677Z,36.99
2017-05-10T05:59:16.705Z,37.09
2017-05-10T06:00:16.728Z,36.99
2017-05-10T06:01:16.754Z,36.99
2017-05-10T06:02:16.774Z,37.09
2017-05-10T06:03:16.796Z,37.18
2017-05-10T06:04:16.821Z,36.71
2017-05-10T06:05:16.850Z,36.61
2017-05-10T06:06:16.921Z,36.61
2017-05-10T06:07:16.899Z,36.53
2017-05-10T06:08:16.921Z,36.71
2017-05-10T06:09:16.950Z,36.61
2017-05-10T06:10:16.975Z,36.71
2017-05-10T06:11:16.998Z,36.82
2017-05-10T06:12:17.018Z,36.8
2017-05-10T06:13:17.046Z,37.01
2017-05-10T06:14:17.123Z,36.63
2017-05-10T06:15:17.145Z,36.63
2017-05-10T06:16:17.120Z,36.44
2017-05-10T06:17:17.270Z,36.53
2017-05-10T06:18:17.474Z,36.53
2017-05-10T06:19:17.192Z,36.34
2017-05-10T06:20:17.214Z,36.44
2017-05-10T06:21:17.245Z,36.44
2017-05-10T06:22:17.288Z,36.15
2017-05-10T06:23:17.307Z,36.24
2017-05-10T06:24:17.365Z,36.34
2017-05-10T06:25:17.336Z,36.53
2017-05-10T06:26:17.365Z,36.44
2017-05-10T06:27:17.383Z,36.44
2017-05-10T06:28:17.409Z,36.24
2017-05-10T06:29:17.435Z,35.96
2017-05-10T06:30:17.463Z,35.96
2017-05-10T06:31:17.499Z,36.15
2017-05-10T06:32:17.560Z,35.86
2017-05-10T06:33:17.534Z,35.96
2017-05-10T06:34:17.564Z,35.96
2017-05-10T06:35:17.600Z,35.96
2017-05-10T06:36:17.909Z,36.05
2017-05-10T06:37:17.932Z,35.77
2017-05-10T06:38:17.660Z,35.86
2017-05-10T06:39:17.680Z,35.67
2017-05-10T06:40:17.701Z,35.86
2017-05-10T06:41:17.725Z,35.86
2017-05-10T06:42:17.805Z,35.96
2017-05-10T06:43:18.504Z,35.77
2017-05-10T06:44:17.815Z,35.86
2017-05-10T06:45:18.137Z,35.96
2017-05-10T06:46:17.870Z,35.57
2017-05-10T06:47:17.874Z,35.96
2017-05-10T06:48:17.907Z,35.67
2017-05-10T06:49:17.929Z,35.49
2017-05-10T06:50:18.258Z,35.57
2017-05-10T06:51:18.278Z,35.69
2017-05-10T06:52:18.004Z,35.67
2017-05-10T06:53:18.025Z,35.4
2017-05-10T06:54:18.051Z,35.49
2017-05-10T06:55:18.348Z,35.78
2017-05-10T06:56:18.097Z,35.3
2017-05-10T06:57:18.125Z,35.49
2017-05-10T06:58:18.199Z,35.21
2017-05-10T06:59:18.481Z,35.11
2017-05-10T07:00:18.426Z,35.11
2017-05-10T07:01:18.222Z,35.21
2017-05-10T07:02:18.249Z,35.4
2017-05-10T07:03:18.276Z,34.92
2017-05-10T07:04:18.616Z,35.11
2017-05-10T07:05:18.318Z,35.02
2017-05-10T07:06:18.352Z,34.82
2017-05-10T07:07:18.679Z,34.92
2017-05-10T07:08:18.698Z,35.02
2017-05-10T07:09:18.747Z,34.82
2017-05-10T07:10:18.445Z,34.73
2017-05-10T07:11:18.469Z,34.92
2017-05-10T07:12:18.502Z,34.92
2017-05-10T07:13:18.519Z,35.02
2017-05-10T07:14:18.550Z,34.82
2017-05-10T07:15:18.874Z,34.92
2017-05-10T07:16:18.659Z,34.92
2017-05-10T07:17:18.930Z,34.63
2017-05-10T07:18:18.642Z,34.75
2017-05-10T07:19:18.672Z,34.53
2017-05-10T07:20:18.706Z,34.55
2017-05-10T07:21:18.882Z,34.75
2017-05-10T07:22:19.048Z,34.55
2017-05-10T07:23:18.777Z,34.55
2017-05-10T07:24:18.793Z,34.65
2017-05-10T07:25:18.818Z,34.75
2017-05-10T07:26:19.146Z,34.65
2017-05-10T07:27:19.167Z,34.55
2017-05-10T07:28:18.889Z,34.65
2017-05-10T07:29:19.272Z,34.65
2017-05-10T07:30:19.248Z,34.36
2017-05-10T07:31:19.020Z,34.65
2017-05-10T07:32:18.999Z,34.65
2017-05-10T07:33:19.039Z,34.65
2017-05-10T07:34:19.041Z,34.45
2017-05-10T07:35:19.068Z,34.65
2017-05-10T07:36:19.092Z,34.45
2017-05-10T07:37:19.120Z,34.55
2017-05-10T07:38:19.147Z,34.17
2017-05-10T07:39:19.167Z,34.27
2017-05-10T07:40:19.192Z,34.36
2017-05-10T07:41:19.216Z,34.45
2017-05-10T07:42:19.263Z,34.36
2017-05-10T07:43:19.269Z,34.27
2017-05-10T07:44:19.295Z,34.45
2017-05-10T07:45:19.321Z,34.36
2017-05-10T07:46:19.693Z,34.27
2017-05-10T07:47:19.371Z,34.36
2017-05-10T07:48:19.391Z,34.55
2017-05-10T07:49:19.558Z,34.65
2017-05-10T07:50:19.743Z,34.36
2017-05-10T07:51:19.470Z,34.45
2017-05-10T07:52:19.795Z,34.27
2017-05-10T07:53:19.818Z,34.36
2017-05-10T07:54:19.540Z,34.27
2017-05-10T07:55:19.567Z,34.36
2017-05-10T07:56:19.595Z,34.36
2017-05-10T07:57:19.619Z,34.27
2017-05-10T07:58:19.641Z,34.19
2017-05-10T07:59:19.666Z,34.17
2017-05-10T08:00:19.692Z,34.09
2017-05-10T08:01:20.023Z,34.19
2017-05-10T08:02:19.741Z,34.09
2017-05-10T08:03:19.767Z,33.9
2017-05-10T08:04:19.796Z,34.19
2017-05-10T08:05:19.866Z,33.99
2017-05-10T08:06:19.876Z,33.9
2017-05-10T08:07:19.867Z,33.99
2017-05-10T08:08:20.202Z,34.09
2017-05-10T08:09:20.218Z,33.8
2017-05-10T08:10:19.946Z,33.9
2017-05-10T08:11:20.276Z,33.9
2017-05-10T08:12:19.994Z,33.7
2017-05-10T08:13:20.021Z,33.99
2017-05-10T08:14:20.051Z,33.9
2017-05-10T08:15:20.069Z,33.8
2017-05-10T08:16:20.096Z,33.8
2017-05-10T08:17:20.133Z,33.8
2017-05-10T08:18:20.148Z,33.8
2017-05-10T08:19:20.547Z,33.62
2017-05-10T08:20:20.200Z,33.72
2017-05-10T08:21:20.531Z,33.62
2017-05-10T08:22:20.253Z,33.62
2017-05-10T08:23:20.274Z,33.62
2017-05-10T08:24:20.306Z,33.44
2017-05-10T08:25:20.328Z,33.72
2017-05-10T08:26:20.360Z,33.44
2017-05-10T08:27:20.381Z,33.53
2017-05-10T08:28:20.417Z,33.53
2017-05-10T08:29:20.733Z,33.53
2017-05-10T08:30:20.457Z,33.24
2017-05-10T08:31:20.486Z,33.44
2017-05-10T08:32:20.506Z,33.24
2017-05-10T08:33:20.836Z,33.44
2017-05-10T08:34:20.558Z,33.34
2017-05-10T08:35:20.906Z,33.24
2017-05-10T08:36:20.611Z,33.34
2017-05-10T08:37:20.720Z,33.24
2017-05-10T08:38:20.656Z,33.34
2017-05-10T08:39:20.736Z,33.34
2017-05-10T08:40:21.105Z,32.95
2017-05-10T08:41:20.741Z,33.07
2017-05-10T08:42:20.765Z,33.07
2017-05-10T08:43:21.090Z,32.87
2017-05-10T08:44:21.125Z,32.95
2017-05-10T08:45:20.948Z,32.87
2017-05-10T08:46:20.872Z,32.97
2017-05-10T08:47:20.901Z,32.49
2017-05-10T08:48:20.916Z,32.78
2017-05-10T08:49:21.249Z,32.49
2017-05-10T08:50:20.970Z,32.68
2017-05-10T08:51:21.303Z,32.49
2017-05-10T08:52:21.022Z,32.87
2017-05-10T08:53:21.348Z,32.78
2017-05-10T08:54:21.379Z,32.49
2017-05-10T08:55:21.148Z,32.49
2017-05-10T08:56:21.122Z,32.49
2017-05-10T08:57:21.152Z,32.49
2017-05-10T08:58:21.176Z,32.49
2017-05-10T08:59:21.207Z,32.39
2017-05-10T09:00:21.530Z,32.59
2017-05-10T09:01:21.262Z,32.49
2017-05-10T09:02:21.280Z,32.31
2017-05-10T09:03:21.306Z,32.31
2017-05-10T09:04:21.341Z,32.31
2017-05-10T09:05:21.358Z,32.12
2017-05-10T09:06:21.383Z,32.21
2017-05-10T09:07:21.411Z,31.93
2017-05-10T09:08:21.434Z,32.03
2017-05-10T09:09:21.466Z,32.03
2017-05-10T09:10:21.816Z,32.03
2017-05-10T09:11:21.517Z,32.03
2017-05-10T09:12:21.547Z,31.83
2017-05-10T09:13:21.620Z,31.93
2017-05-10T09:14:21.589Z,31.64
2017-05-10T09:15:21.624Z,31.65
2017-05-10T09:16:21.646Z,32.12
2017-05-10T09:17:21.975Z,32.14
2017-05-10T09:18:21.701Z,32.23
2017-05-10T09:19:22.025Z,32.23
2017-05-10T09:20:21.754Z,32.23
2017-05-10T09:21:21.774Z,31.65
2017-05-10T09:22:22.138Z,31.37
2017-05-10T09:23:22.131Z,31.95
2017-05-10T09:24:21.859Z,31.27
2017-05-10T09:25:22.182Z,31.75
2017-05-10T09:26:21.908Z,31.56
2017-05-10T09:27:21.933Z,31.08
2017-05-10T09:28:22.260Z,31.18
2017-05-10T09:29:22.294Z,31.27
2017-05-10T09:30:22.313Z,31.18
2017-05-10T09:31:22.040Z,31.37
2017-05-10T09:32:22.117Z,31.09
2017-05-10T09:33:22.101Z,31.19
2017-05-10T09:34:22.120Z,30.52
2017-05-10T09:35:22.326Z,30.61
2017-05-10T09:36:22.175Z,31
2017-05-10T09:37:22.505Z,30.22
2017-05-10T09:38:22.225Z,30.8
2017-05-10T09:39:22.551Z,30.8
2017-05-10T09:40:22.577Z,30.42
2017-05-10T09:41:22.316Z,30.13
2017-05-10T09:42:22.637Z,30.22
2017-05-10T09:43:22.358Z,30.13
2017-05-10T09:44:22.414Z,30.22
2017-05-10T09:45:22.712Z,30.24
2017-05-10T09:46:22.737Z,30.05
2017-05-10T09:47:22.468Z,29.2
2017-05-10T09:48:22.498Z,28.42
2017-05-10T09:49:22.573Z,27.01
2017-05-10T09:50:22.550Z,25.57
2017-05-10T09:51:22.880Z,24.73
2017-05-10T09:52:22.898Z,23.69
2017-05-10T09:53:22.627Z,22.74
2017-05-10T09:54:22.655Z,22.27
2017-05-10T09:55:22.684Z,21.79
2017-05-10T09:56:22.720Z,21.61
2017-05-10T09:57:23.039Z,21.13
2017-05-10T09:58:22.808Z,20.74
2017-05-10T09:59:22.797Z,20.74
2017-05-10T10:00:22.829Z,19.98
2017-05-10T10:01:22.868Z,19.88
2017-05-10T10:02:23.189Z,19.21
2017-05-10T10:03:22.912Z,18.44
2017-05-10T10:04:22.937Z,18.07
2017-05-10T10:05:23.275Z,17.5
2017-05-10T10:06:23.049Z,16.64
2017-05-10T10:07:23.030Z,16.46
2017-05-10T10:08:23.063Z,16.84
2017-05-10T10:09:23.126Z,17.03
2017-05-10T10:10:23.123Z,16.55
2017-05-10T10:11:23.155Z,16.74
2017-05-10T10:12:23.485Z,16.35
2017-05-10T10:13:23.214Z,16.54
2017-05-10T10:14:23.604Z,16.35
2017-05-10T10:15:23.287Z,16.83
2017-05-10T10:16:23.611Z,16.54
2017-05-10T10:17:23.654Z,16.74
2017-05-10T10:18:23.374Z,16.44
2017-05-10T10:19:23.707Z,16.64
2017-05-10T10:20:23.437Z,16.55
2017-05-10T10:21:23.473Z,16.16
2017-05-10T10:22:23.504Z,16.55
2017-05-10T10:23:23.607Z,15.88
2017-05-10T10:24:23.572Z,15.97
2017-05-10T10:25:23.602Z,15.88
2017-05-10T10:26:23.638Z,15.59
2017-05-10T10:27:23.695Z,15.3
2017-05-10T10:28:23.700Z,14.72
2017-05-10T10:29:23.729Z,14.43
2017-05-10T10:30:23.759Z,14.04
2017-05-10T10:31:23.789Z,13.85
2017-05-10T10:32:23.824Z,13.67
2017-05-10T10:33:24.038Z,13.39
2017-05-10T10:34:23.890Z,13.29
2017-05-10T10:35:23.919Z,12.81
2017-05-10T10:36:24.259Z,12.52
2017-05-10T10:37:24.296Z,12.62
2017-05-10T10:38:24.018Z,12.32
2017-05-10T10:39:24.104Z,12.32
2017-05-10T10:40:24.089Z,11.74
2017-05-10T10:41:24.123Z,12.14
2017-05-10T10:42:24.151Z,11.75
2017-05-10T10:43:24.187Z,11.55
2017-05-10T10:44:24.219Z,11.65
2017-05-10T10:45:24.250Z,11.85
2017-05-10T10:46:24.611Z,11.65
2017-05-10T10:47:24.320Z,11.85
2017-05-10T10:48:24.348Z,11.26
2017-05-10T10:49:24.683Z,11.65
2017-05-10T10:50:24.420Z,11.16
2017-05-10T10:51:24.474Z,11.94
2017-05-10T10:52:24.482Z,11.84
2017-05-10T10:53:24.818Z,12.13
2017-05-10T10:54:24.605Z,12.72
2017-05-10T10:55:24.886Z,12.32
2017-05-10T10:56:24.633Z,12.9
2017-05-10T10:57:24.654Z,13.2
2017-05-10T10:58:24.683Z,13.19
2017-05-10T10:59:24.716Z,13.87
2017-05-10T11:00:25.056Z,13.77
2017-05-10T11:01:24.784Z,14.34
2017-05-10T11:02:24.825Z,14.73
2017-05-10T11:03:24.851Z,15.11
2017-05-10T11:04:25.185Z,15.88
2017-05-10T11:05:24.914Z,15.97
2017-05-10T11:06:24.945Z,16.55
2017-05-10T11:07:24.979Z,17.13
2017-05-10T11:08:25.315Z,17.21
2017-05-10T11:09:25.070Z,17.69
2017-05-10T11:10:25.096Z,18.37
2017-05-10T11:11:25.107Z,18.66
2017-05-10T11:12:25.146Z,18.94
2017-05-10T11:13:25.221Z,18.74
2017-05-10T11:14:25.526Z,19.12
2017-05-10T11:15:25.533Z,19.8
2017-05-10T11:16:25.265Z,20.28
2017-05-10T11:17:25.303Z,20.47
2017-05-10T11:18:25.327Z,20.46
2017-05-10T11:19:25.361Z,21.04
2017-05-10T11:20:25.399Z,21.03
2017-05-10T11:21:25.421Z,20.95
2017-05-10T11:22:25.450Z,21.61
2017-05-10T11:23:25.482Z,21.81
2017-05-10T11:24:25.511Z,21.7
2017-05-10T11:25:25.541Z,21.51
2017-05-10T11:26:25.573Z,21.99
2017-05-10T11:27:25.609Z,21.89
2017-05-10T11:28:25.635Z,22.56
2017-05-10T11:29:25.715Z,22.66
2017-05-10T11:30:25.699Z,22.85
2017-05-10T11:31:25.729Z,22.75
2017-05-10T11:32:25.923Z,23.05
2017-05-10T11:33:25.785Z,22.56
2017-05-10T11:34:25.816Z,23.05
2017-05-10T11:35:25.847Z,23.33
2017-05-10T11:36:25.878Z,23.14
2017-05-10T11:37:25.910Z,23.05
2017-05-10T11:38:26.245Z,23.24
2017-05-10T11:39:26.136Z,23.43
2017-05-10T11:40:26.301Z,23.33
2017-05-10T11:41:26.024Z,23.42
2017-05-10T11:42:26.365Z,23.23
2017-05-10T11:43:26.090Z,23.61
2017-05-10T11:44:26.320Z,23.52
2017-05-10T11:45:26.148Z,23.42
2017-05-10T11:46:26.177Z,23.71
2017-05-10T11:47:26.209Z,23.91
2017-05-10T11:48:26.230Z,23.71
2017-05-10T11:49:26.261Z,23.23
2017-05-10T11:50:26.310Z,23.71
2017-05-10T11:51:26.341Z,23.61
2017-05-10T11:52:26.348Z,23.8
2017-05-10T11:53:26.820Z,23.9
2017-05-10T11:54:26.410Z,24.09
2017-05-10T11:55:26.439Z,24.09
2017-05-10T11:56:26.774Z,24.38
2017-05-10T11:57:26.504Z,24.28
2017-05-10T11:58:26.833Z,24.18
2017-05-10T11:59:26.684Z,24.38
2017-05-10T12:00:26.894Z,24.38
2017-05-10T12:01:27.058Z,24.57
2017-05-10T12:02:26.948Z,24.57
2017-05-10T12:03:26.676Z,24.38
2017-05-10T12:04:26.707Z,24.48
2017-05-10T12:05:26.739Z,24.18
2017-05-10T12:06:27.065Z,24.48
2017-05-10T12:07:26.799Z,24.28
2017-05-10T12:08:27.121Z,24.57
2017-05-10T12:09:26.853Z,24.48
2017-05-10T12:10:26.907Z,24.67
2017-05-10T12:11:26.926Z,24.57
2017-05-10T12:12:26.944Z,24.57
2017-05-10T12:13:26.981Z,24.86
2017-05-10T12:14:27.055Z,24.86
2017-05-10T12:15:27.028Z,24.77
2017-05-10T12:16:27.057Z,24.67
2017-05-10T12:17:27.388Z,24.77
2017-05-10T12:18:27.117Z,24.57
2017-05-10T12:19:27.149Z,24.67
2017-05-10T12:20:27.178Z,24.77
2017-05-10T12:21:27.510Z,24.67
2017-05-10T12:22:27.538Z,24.67
2017-05-10T12:23:27.632Z,24.77
2017-05-10T12:24:27.292Z,24.77
2017-05-10T12:25:27.622Z,24.67
2017-05-10T12:26:27.364Z,24.77
2017-05-10T12:27:27.382Z,24.67
2017-05-10T12:28:27.413Z,24.57
2017-05-10T12:29:27.745Z,24.96
2017-05-10T12:30:27.470Z,24.96
2017-05-10T12:31:27.508Z,24.67
2017-05-10T12:32:27.529Z,25.05
2017-05-10T12:33:27.611Z,24.77
2017-05-10T12:34:27.902Z,24.77
2017-05-10T12:35:27.618Z,24.77
2017-05-10T12:36:27.944Z,24.86
2017-05-10T12:37:27.770Z,24.96
2017-05-10T12:38:28.011Z,25.05
2017-05-10T12:39:28.035Z,24.86
2017-05-10T12:40:28.068Z,24.86
2017-05-10T12:41:28.113Z,25.07
2017-05-10T12:42:27.835Z,25.05
2017-05-10T12:43:27.929Z,24.86
2017-05-10T12:44:27.886Z,24.86
2017-05-10T12:45:27.912Z,25.05
2017-05-10T12:46:27.946Z,24.86
2017-05-10T12:47:27.994Z,25.36
2017-05-10T12:48:28.030Z,25.26
2017-05-10T12:49:28.079Z,25.05
2017-05-10T12:50:28.058Z,25.44
2017-05-10T12:51:28.587Z,25.35
2017-05-10T12:52:28.120Z,25.46
2017-05-10T12:53:28.147Z,25.36
2017-05-10T12:54:28.178Z,25.46